首页
METAR-TAF:

METAR-TAF

机场 :

塔斯卡卢萨, 阿拉巴马州, 美国

纬度: 33-12-43N, 经度: 087-36-57W, 海拔: 52米

当前天气观测

该预报发布于1小时和4分钟前的15:53 UTC
风速6节,风向
温度 24°C
湿度 61%
气压 1018 hPa
能見度: 16.1公里
阴天层高于9500英尺

METAR: KTCL 231553Z 10006KT 10SM OVC095 24/16 A3007 RMK AO2 SLP178 T02390161

时间: 11:57 (16:57 UTC)

预报

该预报发布于5小时和31分钟前的11:26 UTC
预报有效从23日的 12点(UTC)到 24日的 12点(UTC)
风速4节,风向多变
能見度: 10公里
多云层高于9000英尺
从 23日的 1500点(UTC)
风速8节,风向
能見度: 10公里
多云层高于7000英尺
从 23日的 1800点(UTC)
风速9节,风向东转东北
能見度: 10公里
阴天层高于8000英尺
附近有阵雨
几率 30%
从 23日的 21点(UTC)到 23日的 24点(UTC)
能見度: 6.4公里
阴天层高于2500英尺
小阵雨
从 24日的 0000点(UTC)
风速9节,风向东转东北
能見度: 9.7公里
阴天层高于7000英尺
阵雨
从 24日的 0600点(UTC)
风速7节,风向
能見度: 9.7公里
阴天层高于4000英尺
阵雨
几率 30%
从 24日的 09点(UTC)到 24日的 12点(UTC)
能見度: 6.4公里
阴天层高于2500英尺, 积雨云.
雷暴, 雨

TAF: KTCL 231126Z 2312/2412 VRB04KT P6SM BKN090 FM231500 10008KT P6SM BKN070 FM231800 07009KT P6SM VCSH OVC080 PROB30 2321/2324 4SM -SHRA OVC025 FM240000 07009KT 6SM SHRA OVC070 FM240600 09007KT 6SM SHRA OVC040 PROB30 2409/2412 4SM TSRA OVC025CB

超过4000个机场的气象观测和天气预报(METAR&TAF报告)。

可查询的气象台以黄色和红色小点在地图上表示。

将鼠标移到小点上方,可查看气象台名称。

然后点击查看天气观测和预报。

如需切换地图:点击带黑十字的绿色按钮放大地图;点击带横线的绿色按钮缩小地图;或者点击绿色箭头查看邻近地区的地图。


METAR-TAF: